Decoded Metar for KPAE (EVERETT in WA, USA) (IATA:PAE) | Meteo·Mobile Aviation Weather
aviador You're here:

KPAE Decoded Metar

EVERETT in WA, USA
Report Time2018-09-20 01:53:00
UTC Time2018-09-20 02:39:09
Flight Rules vfr VFR
Wind320° at 05 kt
W.Decomp.*RWY 29: 4.9 kt HW 1.1 kt RCW
RWY 34: 4.0 kt HW 3 kt LCW
W.Rank320° ranks 15
Current wind is below 320° avg. (5.5)
Visibility9999 m
Phenomena:N/A
Clouds:Scattered 055 Hf
Overcast 095 Hf
Expected CloudBase > 2,800 ft AGL from Temp-Dew spread
Ceiling9,500 ft
Temp15°C (ISA +1)
Dew Point08°C (63% RH)
AAT12.7°C
QNH1018 hPa
Density Alt709 ft
Elevation591 ft
Report Wrong Elevation
Raw Report
KPAE 200153Z 32005KT 10SM SCT055 OVC095 15/08 A3007 RMK AO2 SLP184
T01500083=

Extra information for KPAE:More info

Metar Taf Metar & Taf Last 4 Metars F.Rules Stats Wind Profile Meteogram Temp Stats Airport Information Weather charts Add Link Nearby VenuesMetar ALERT Operation Metar Decoded Social comments

AIRNAV info for KPAE